Comfrey, MN (56019)

11:39 AM CDT on August 28, 2016 (GMT -0500)
APRSWXNET | | Change Station

Elev 1060 ft 44.26 °N, 94.99 °W | Updated 46 minutes ago

Scattered Clouds
Scattered Clouds
71 °F
Feels Like 71 °F
N
4
Wind Variable Wind from ESE
Gusts 8.0 mph

Today
High -- | Low -- °F
--% Chance of Precip.
Yesterday
High -- | Low -- °F
Precip. -- in
Pressure 30.14 in
Visibility 10.0 miles
Clouds Scattered Clouds 1800 ft
Dew Point 68 °F
Humidity 91%
Rainfall in
Snow Depth Not available.
6:38 AM 8:01 PM
Waning Crescent, 14% visible
METAR KMWM 281634Z AUTO 14005KT 10SM SCT018 26/21 A3014 RMK AO2
Pressure 30.14 in
Visibility 10.0 miles
Clouds Scattered Clouds 1800 ft
Dew Point 68 °F
Humidity 91%
Rainfall in
Snow Depth Not available.
6:38 AM 8:01 PM
Waning Crescent, 14% visible
METAR KMWM 281634Z AUTO 14005KT 10SM SCT018 26/21 A3014 RMK AO2

10-Day Weather Forecast

Almanac

Astronomy

Aug. 28, 2016 Rise Set
Actual Time
Civil Twilight
Nautical Twilight
Astronomical Twilight
Moon
Length of Visible Light
Length of Day
Tomorrow will be .
, % of the Moon is Illuminated

Today's Extremes

State Highs State Lows

Community

WunderPhotos

Upload Photos

1,935,621 photos uploaded!

WunderBlog® & News

Nearby

Air Quality

  Air Quality AQ Index Pollutant
Not available.

Snow Depth

Station Depth Elevation

Earthquake Activity

City Distance Mag. Time & Date
Minimum magnitude displayed is 2.5.

Coastal Water Temperatures

Place Temperature

Stations

Nearby Weather Stations

Station Location Temp. Windchill Dew Point Humidity Wind Precip. Elev Updated Type
                   

Watches & Warnings

There are currently no watches in effect.